sensor_id;sensor_type;location;lat;lon;timestamp;P1;durP1;ratioP1;P2;durP2;ratioP2
26060;SDS011;36331;51.378;0.018;2022-09-09T00:02:21;7.85;;;2.30;;
26060;SDS011;36331;51.378;0.018;2022-09-09T00:04:54;10.82;;;2.00;;
26060;SDS011;36331;51.378;0.018;2022-09-09T00:07:31;6.95;;;2.67;;
26060;SDS011;36331;51.378;0.018;2022-09-09T00:10:09;8.32;;;3.30;;
26060;SDS011;36331;51.378;0.018;2022-09-09T00:12:46;5.07;;;1.67;;
26060;SDS011;36331;51.378;0.018;2022-09-09T00:15:18;4.55;;;2.63;;
26060;SDS011;36331;51.378;0.018;2022-09-09T00:17:48;9.18;;;1.83;;
26060;SDS011;36331;51.378;0.018;2022-09-09T00:20:22;6.28;;;1.77;;
26060;SDS011;36331;51.378;0.018;2022-09-09T00:22:57;9.02;;;1.70;;
26060;SDS011;36331;51.378;0.018;2022-09-09T00:25:29;4.93;;;1.80;;
26060;SDS011;36331;51.378;0.018;2022-09-09T00:28:04;7.47;;;2.20;;
26060;SDS011;36331;51.378;0.018;2022-09-09T00:30:40;7.60;;;1.90;;
26060;SDS011;36331;51.378;0.018;2022-09-09T00:33:11;7.22;;;2.03;;
26060;SDS011;36331;51.378;0.018;2022-09-09T00:38:12;5.30;;;2.03;;
26060;SDS011;36331;51.378;0.018;2022-09-09T00:40:45;8.10;;;2.40;;
26060;SDS011;36331;51.378;0.018;2022-09-09T00:43:25;8.15;;;2.80;;
26060;SDS011;36331;51.378;0.018;2022-09-09T00:46:10;8.52;;;2.58;;
26060;SDS011;36331;51.378;0.018;2022-09-09T00:48:44;5.40;;;2.10;;
26060;SDS011;36331;51.378;0.018;2022-09-09T00:51:20;4.90;;;2.67;;
26060;SDS011;36331;51.378;0.018;2022-09-09T00:53:57;7.97;;;3.03;;
26060;SDS011;36331;51.378;0.018;2022-09-09T00:56:28;9.93;;;2.28;;
26060;SDS011;36331;51.378;0.018;2022-09-09T00:59:03;7.45;;;2.13;;
26060;SDS011;36331;51.378;0.018;2022-09-09T01:01:36;9.07;;;2.58;;
26060;SDS011;36331;51.378;0.018;2022-09-09T01:04:07;11.38;;;2.67;;
26060;SDS011;36331;51.378;0.018;2022-09-09T01:06:38;11.32;;;3.03;;
26060;SDS011;36331;51.378;0.018;2022-09-09T01:09:10;10.45;;;2.63;;
26060;SDS011;36331;51.378;0.018;2022-09-09T01:11:43;6.55;;;2.92;;
26060;SDS011;36331;51.378;0.018;2022-09-09T01:14:22;6.38;;;3.17;;
26060;SDS011;36331;51.378;0.018;2022-09-09T01:16:54;10.00;;;3.10;;
26060;SDS011;36331;51.378;0.018;2022-09-09T01:19:26;10.95;;;3.42;;
26060;SDS011;36331;51.378;0.018;2022-09-09T01:22:00;4.60;;;3.30;;
26060;SDS011;36331;51.378;0.018;2022-09-09T01:24:35;10.27;;;3.50;;
26060;SDS011;36331;51.378;0.018;2022-09-09T01:27:16;11.73;;;4.75;;
26060;SDS011;36331;51.378;0.018;2022-09-09T01:29:47;8.02;;;2.60;;
26060;SDS011;36331;51.378;0.018;2022-09-09T01:32:38;10.63;;;3.60;;
26060;SDS011;36331;51.378;0.018;2022-09-09T01:35:11;10.90;;;3.72;;
26060;SDS011;36331;51.378;0.018;2022-09-09T01:37:41;9.18;;;3.47;;
26060;SDS011;36331;51.378;0.018;2022-09-09T01:40:10;7.28;;;3.55;;
26060;SDS011;36331;51.378;0.018;2022-09-09T01:42:41;10.98;;;3.30;;
26060;SDS011;36331;51.378;0.018;2022-09-09T01:45:10;10.52;;;3.05;;
26060;SDS011;36331;51.378;0.018;2022-09-09T01:47:39;11.82;;;3.35;;
26060;SDS011;36331;51.378;0.018;2022-09-09T01:50:17;12.10;;;4.03;;
26060;SDS011;36331;51.378;0.018;2022-09-09T01:52:47;9.00;;;4.60;;
26060;SDS011;36331;51.378;0.018;2022-09-09T01:55:23;13.20;;;4.53;;
26060;SDS011;36331;51.378;0.018;2022-09-09T01:58:03;9.35;;;3.92;;
26060;SDS011;36331;51.378;0.018;2022-09-09T02:00:35;8.98;;;4.22;;
26060;SDS011;36331;51.378;0.018;2022-09-09T02:03:08;15.52;;;5.38;;
26060;SDS011;36331;51.378;0.018;2022-09-09T02:05:51;10.50;;;3.20;;
26060;SDS011;36331;51.378;0.018;2022-09-09T02:08:29;11.27;;;3.65;;
26060;SDS011;36331;51.378;0.018;2022-09-09T02:11:06;9.98;;;3.20;;
26060;SDS011;36331;51.378;0.018;2022-09-09T02:13:42;7.82;;;2.25;;
26060;SDS011;36331;51.378;0.018;2022-09-09T02:16:14;6.28;;;1.92;;
26060;SDS011;36331;51.378;0.018;2022-09-09T02:18:47;8.77;;;2.55;;
26060;SDS011;36331;51.378;0.018;2022-09-09T02:21:26;7.95;;;2.42;;
26060;SDS011;36331;51.378;0.018;2022-09-09T02:23:56;8.52;;;2.35;;
26060;SDS011;36331;51.378;0.018;2022-09-09T02:26:29;6.60;;;2.45;;
26060;SDS011;36331;51.378;0.018;2022-09-09T02:29:07;13.05;;;2.85;;
26060;SDS011;36331;51.378;0.018;2022-09-09T02:31:39;6.80;;;1.80;;
26060;SDS011;36331;51.378;0.018;2022-09-09T02:34:14;9.55;;;2.35;;
26060;SDS011;36331;51.378;0.018;2022-09-09T02:36:44;7.35;;;2.40;;
26060;SDS011;36331;51.378;0.018;2022-09-09T02:39:15;4.93;;;2.05;;
26060;SDS011;36331;51.378;0.018;2022-09-09T02:41:44;7.57;;;2.60;;
26060;SDS011;36331;51.378;0.018;2022-09-09T02:44:16;5.30;;;1.95;;
26060;SDS011;36331;51.378;0.018;2022-09-09T02:46:58;4.07;;;1.83;;
26060;SDS011;36331;51.378;0.018;2022-09-09T02:49:35;7.35;;;2.47;;
26060;SDS011;36331;51.378;0.018;2022-09-09T02:52:11;7.45;;;2.58;;
26060;SDS011;36331;51.378;0.018;2022-09-09T02:54:43;9.38;;;2.90;;
26060;SDS011;36331;51.378;0.018;2022-09-09T02:57:14;8.15;;;2.35;;
26060;SDS011;36331;51.378;0.018;2022-09-09T02:59:48;9.50;;;2.53;;
26060;SDS011;36331;51.378;0.018;2022-09-09T03:04:53;6.85;;;3.03;;
26060;SDS011;36331;51.378;0.018;2022-09-09T03:07:22;12.90;;;4.95;;
26060;SDS011;36331;51.378;0.018;2022-09-09T03:09:52;5.60;;;2.60;;
26060;SDS011;36331;51.378;0.018;2022-09-09T03:12:24;6.70;;;2.70;;
26060;SDS011;36331;51.378;0.018;2022-09-09T03:14:54;10.18;;;2.70;;
26060;SDS011;36331;51.378;0.018;2022-09-09T03:17:24;8.80;;;3.63;;
26060;SDS011;36331;51.378;0.018;2022-09-09T03:19:55;6.72;;;2.70;;
26060;SDS011;36331;51.378;0.018;2022-09-09T03:22:24;11.02;;;3.35;;
26060;SDS011;36331;51.378;0.018;2022-09-09T03:24:57;9.23;;;3.00;;
26060;SDS011;36331;51.378;0.018;2022-09-09T03:27:27;8.05;;;3.00;;
26060;SDS011;36331;51.378;0.018;2022-09-09T03:29:58;6.43;;;3.63;;
26060;SDS011;36331;51.378;0.018;2022-09-09T03:32:31;9.18;;;3.70;;
26060;SDS011;36331;51.378;0.018;2022-09-09T03:35:01;5.70;;;3.28;;
26060;SDS011;36331;51.378;0.018;2022-09-09T03:37:30;9.52;;;3.20;;
26060;SDS011;36331;51.378;0.018;2022-09-09T03:39:59;9.15;;;3.28;;
26060;SDS011;36331;51.378;0.018;2022-09-09T03:42:29;10.02;;;3.80;;
26060;SDS011;36331;51.378;0.018;2022-09-09T03:45:00;9.18;;;3.13;;
26060;SDS011;36331;51.378;0.018;2022-09-09T03:47:30;8.27;;;2.92;;
26060;SDS011;36331;51.378;0.018;2022-09-09T03:50:05;10.50;;;3.08;;
26060;SDS011;36331;51.378;0.018;2022-09-09T03:52:37;11.45;;;3.70;;
26060;SDS011;36331;51.378;0.018;2022-09-09T03:55:08;8.27;;;3.38;;
26060;SDS011;36331;51.378;0.018;2022-09-09T03:57:37;14.95;;;4.15;;
26060;SDS011;36331;51.378;0.018;2022-09-09T04:00:10;13.27;;;3.53;;
26060;SDS011;36331;51.378;0.018;2022-09-09T04:02:42;8.25;;;3.30;;
26060;SDS011;36331;51.378;0.018;2022-09-09T04:05:15;12.40;;;4.43;;
26060;SDS011;36331;51.378;0.018;2022-09-09T04:07:46;13.43;;;3.63;;
26060;SDS011;36331;51.378;0.018;2022-09-09T04:10:15;8.35;;;3.55;;
26060;SDS011;36331;51.378;0.018;2022-09-09T04:12:44;10.73;;;3.80;;
26060;SDS011;36331;51.378;0.018;2022-09-09T04:15:17;8.55;;;3.78;;
26060;SDS011;36331;51.378;0.018;2022-09-09T04:17:46;9.00;;;3.28;;
26060;SDS011;36331;51.378;0.018;2022-09-09T04:20:16;12.80;;;4.97;;
26060;SDS011;36331;51.378;0.018;2022-09-09T04:22:46;12.05;;;3.72;;
26060;SDS011;36331;51.378;0.018;2022-09-09T04:25:15;8.25;;;3.60;;
26060;SDS011;36331;51.378;0.018;2022-09-09T04:27:44;9.77;;;4.47;;
26060;SDS011;36331;51.378;0.018;2022-09-09T04:30:14;8.30;;;3.53;;
26060;SDS011;36331;51.378;0.018;2022-09-09T04:32:45;12.35;;;4.25;;
26060;SDS011;36331;51.378;0.018;2022-09-09T04:35:21;10.13;;;4.17;;
26060;SDS011;36331;51.378;0.018;2022-09-09T04:37:55;6.40;;;4.15;;
26060;SDS011;36331;51.378;0.018;2022-09-09T04:40:27;11.15;;;3.40;;
26060;SDS011;36331;51.378;0.018;2022-09-09T04:42:58;9.40;;;3.95;;
26060;SDS011;36331;51.378;0.018;2022-09-09T04:45:27;8.60;;;3.65;;
26060;SDS011;36331;51.378;0.018;2022-09-09T04:47:58;8.25;;;4.07;;
26060;SDS011;36331;51.378;0.018;2022-09-09T04:50:29;9.95;;;3.75;;
26060;SDS011;36331;51.378;0.018;2022-09-09T04:52:59;9.68;;;3.65;;
26060;SDS011;36331;51.378;0.018;2022-09-09T04:55:29;6.97;;;3.78;;
26060;SDS011;36331;51.378;0.018;2022-09-09T04:58:03;9.18;;;3.90;;
26060;SDS011;36331;51.378;0.018;2022-09-09T05:00:33;9.95;;;3.78;;
26060;SDS011;36331;51.378;0.018;2022-09-09T05:03:10;7.32;;;3.50;;
26060;SDS011;36331;51.378;0.018;2022-09-09T05:05:40;9.02;;;3.67;;
26060;SDS011;36331;51.378;0.018;2022-09-09T05:08:09;7.65;;;4.05;;
26060;SDS011;36331;51.378;0.018;2022-09-09T05:10:39;11.48;;;4.18;;
26060;SDS011;36331;51.378;0.018;2022-09-09T05:13:09;8.75;;;3.35;;
26060;SDS011;36331;51.378;0.018;2022-09-09T05:15:38;7.45;;;3.70;;
26060;SDS011;36331;51.378;0.018;2022-09-09T05:18:13;6.25;;;3.92;;
26060;SDS011;36331;51.378;0.018;2022-09-09T05:20:43;10.82;;;3.78;;
26060;SDS011;36331;51.378;0.018;2022-09-09T05:23:16;8.07;;;4.20;;
26060;SDS011;36331;51.378;0.018;2022-09-09T05:25:54;11.65;;;4.45;;
26060;SDS011;36331;51.378;0.018;2022-09-09T05:28:28;7.65;;;4.45;;
26060;SDS011;36331;51.378;0.018;2022-09-09T05:30:58;9.63;;;4.30;;
26060;SDS011;36331;51.378;0.018;2022-09-09T05:33:34;10.40;;;4.82;;
26060;SDS011;36331;51.378;0.018;2022-09-09T05:36:05;8.48;;;4.22;;
26060;SDS011;36331;51.378;0.018;2022-09-09T05:38:34;11.60;;;5.30;;
26060;SDS011;36331;51.378;0.018;2022-09-09T05:41:05;17.15;;;6.47;;
26060;SDS011;36331;51.378;0.018;2022-09-09T05:43:34;10.32;;;5.53;;
26060;SDS011;36331;51.378;0.018;2022-09-09T05:46:04;11.38;;;5.70;;
26060;SDS011;36331;51.378;0.018;2022-09-09T05:48:37;11.88;;;5.80;;
26060;SDS011;36331;51.378;0.018;2022-09-09T05:51:07;12.05;;;5.45;;
26060;SDS011;36331;51.378;0.018;2022-09-09T05:53:37;10.73;;;5.43;;
26060;SDS011;36331;51.378;0.018;2022-09-09T05:56:08;14.30;;;5.85;;
26060;SDS011;36331;51.378;0.018;2022-09-09T05:58:38;12.45;;;6.18;;
26060;SDS011;36331;51.378;0.018;2022-09-09T06:01:10;14.47;;;6.37;;
26060;SDS011;36331;51.378;0.018;2022-09-09T06:03:46;12.52;;;6.45;;
26060;SDS011;36331;51.378;0.018;2022-09-09T06:06:17;9.45;;;4.90;;
26060;SDS011;36331;51.378;0.018;2022-09-09T06:08:49;12.82;;;5.97;;
26060;SDS011;36331;51.378;0.018;2022-09-09T06:11:20;12.75;;;5.47;;
26060;SDS011;36331;51.378;0.018;2022-09-09T06:13:49;15.20;;;6.35;;
26060;SDS011;36331;51.378;0.018;2022-09-09T06:16:22;12.52;;;6.65;;
26060;SDS011;36331;51.378;0.018;2022-09-09T06:18:53;11.77;;;5.80;;
26060;SDS011;36331;51.378;0.018;2022-09-09T06:21:26;12.30;;;6.20;;
26060;SDS011;36331;51.378;0.018;2022-09-09T06:23:55;16.98;;;6.70;;
26060;SDS011;36331;51.378;0.018;2022-09-09T06:26:28;13.20;;;6.55;;
26060;SDS011;36331;51.378;0.018;2022-09-09T06:31:29;12.05;;;5.63;;
26060;SDS011;36331;51.378;0.018;2022-09-09T06:34:09;15.02;;;6.30;;
26060;SDS011;36331;51.378;0.018;2022-09-09T06:36:41;14.07;;;6.47;;
26060;SDS011;36331;51.378;0.018;2022-09-09T06:39:12;12.40;;;6.25;;
26060;SDS011;36331;51.378;0.018;2022-09-09T06:41:43;13.32;;;6.22;;
26060;SDS011;36331;51.378;0.018;2022-09-09T06:44:42;9.75;;;5.85;;
26060;SDS011;36331;51.378;0.018;2022-09-09T06:47:18;12.32;;;5.28;;
26060;SDS011;36331;51.378;0.018;2022-09-09T06:49:48;9.80;;;5.80;;
26060;SDS011;36331;51.378;0.018;2022-09-09T06:52:18;10.65;;;5.15;;
26060;SDS011;36331;51.378;0.018;2022-09-09T06:54:50;12.38;;;4.53;;
26060;SDS011;36331;51.378;0.018;2022-09-09T06:57:21;9.68;;;3.83;;
26060;SDS011;36331;51.378;0.018;2022-09-09T07:00:05;8.18;;;4.03;;
26060;SDS011;36331;51.378;0.018;2022-09-09T07:02:35;9.23;;;4.53;;
26060;SDS011;36331;51.378;0.018;2022-09-09T07:05:09;8.05;;;3.90;;
26060;SDS011;36331;51.378;0.018;2022-09-09T07:07:41;8.73;;;4.45;;
26060;SDS011;36331;51.378;0.018;2022-09-09T07:10:11;8.88;;;4.80;;
26060;SDS011;36331;51.378;0.018;2022-09-09T07:12:41;6.45;;;4.10;;
26060;SDS011;36331;51.378;0.018;2022-09-09T07:15:12;7.82;;;4.10;;
26060;SDS011;36331;51.378;0.018;2022-09-09T07:17:44;8.70;;;4.28;;
26060;SDS011;36331;51.378;0.018;2022-09-09T07:20:15;6.63;;;4.10;;
26060;SDS011;36331;51.378;0.018;2022-09-09T07:22:45;5.13;;;2.85;;
26060;SDS011;36331;51.378;0.018;2022-09-09T07:25:14;9.10;;;3.45;;
26060;SDS011;36331;51.378;0.018;2022-09-09T07:27:46;5.68;;;3.42;;
26060;SDS011;36331;51.378;0.018;2022-09-09T07:30:15;5.70;;;3.05;;
26060;SDS011;36331;51.378;0.018;2022-09-09T07:32:54;5.25;;;3.03;;
26060;SDS011;36331;51.378;0.018;2022-09-09T07:35:26;7.38;;;3.38;;
26060;SDS011;36331;51.378;0.018;2022-09-09T07:37:55;4.93;;;3.50;;
26060;SDS011;36331;51.378;0.018;2022-09-09T07:40:25;6.70;;;3.97;;
26060;SDS011;36331;51.378;0.018;2022-09-09T07:42:56;6.75;;;3.60;;
26060;SDS011;36331;51.378;0.018;2022-09-09T07:45:26;7.30;;;4.30;;
26060;SDS011;36331;51.378;0.018;2022-09-09T07:47:55;8.90;;;4.28;;
26060;SDS011;36331;51.378;0.018;2022-09-09T07:50:26;6.07;;;3.33;;
26060;SDS011;36331;51.378;0.018;2022-09-09T07:52:56;6.45;;;4.00;;
26060;SDS011;36331;51.378;0.018;2022-09-09T07:55:26;5.40;;;3.60;;
26060;SDS011;36331;51.378;0.018;2022-09-09T07:57:56;7.57;;;3.88;;
26060;SDS011;36331;51.378;0.018;2022-09-09T08:00:25;6.32;;;4.50;;
26060;SDS011;36331;51.378;0.018;2022-09-09T08:02:57;6.60;;;4.00;;
26060;SDS011;36331;51.378;0.018;2022-09-09T08:08:00;8.02;;;4.18;;
26060;SDS011;36331;51.378;0.018;2022-09-09T08:10:31;6.80;;;3.90;;
26060;SDS011;36331;51.378;0.018;2022-09-09T08:13:00;7.80;;;4.10;;
26060;SDS011;36331;51.378;0.018;2022-09-09T08:15:46;4.93;;;3.63;;
26060;SDS011;36331;51.378;0.018;2022-09-09T08:18:18;5.55;;;3.60;;
26060;SDS011;36331;51.378;0.018;2022-09-09T08:20:49;10.88;;;3.50;;
26060;SDS011;36331;51.378;0.018;2022-09-09T08:23:20;8.07;;;3.70;;
26060;SDS011;36331;51.378;0.018;2022-09-09T08:25:49;6.18;;;3.50;;
26060;SDS011;36331;51.378;0.018;2022-09-09T08:28:19;6.63;;;3.40;;
26060;SDS011;36331;51.378;0.018;2022-09-09T08:30:48;6.40;;;3.15;;
26060;SDS011;36331;51.378;0.018;2022-09-09T08:33:18;5.07;;;3.53;;
26060;SDS011;36331;51.378;0.018;2022-09-09T08:35:49;4.25;;;3.25;;
26060;SDS011;36331;51.378;0.018;2022-09-09T08:38:29;4.78;;;3.10;;
26060;SDS011;36331;51.378;0.018;2022-09-09T08:41:03;4.28;;;3.10;;
26060;SDS011;36331;51.378;0.018;2022-09-09T08:43:35;5.15;;;3.30;;
26060;SDS011;36331;51.378;0.018;2022-09-09T08:46:06;5.10;;;2.97;;
26060;SDS011;36331;51.378;0.018;2022-09-09T08:48:44;5.75;;;3.35;;
26060;SDS011;36331;51.378;0.018;2022-09-09T08:51:15;4.78;;;3.10;;
26060;SDS011;36331;51.378;0.018;2022-09-09T08:53:48;5.35;;;3.65;;
26060;SDS011;36331;51.378;0.018;2022-09-09T08:56:24;5.20;;;3.50;;
26060;SDS011;36331;51.378;0.018;2022-09-09T08:58:58;7.18;;;3.58;;
26060;SDS011;36331;51.378;0.018;2022-09-09T09:01:42;5.28;;;3.88;;
26060;SDS011;36331;51.378;0.018;2022-09-09T09:04:27;5.28;;;3.78;;
26060;SDS011;36331;51.378;0.018;2022-09-09T09:07:00;6.03;;;3.53;;
26060;SDS011;36331;51.378;0.018;2022-09-09T09:09:35;4.57;;;3.63;;
26060;SDS011;36331;51.378;0.018;2022-09-09T09:12:15;5.80;;;3.60;;
26060;SDS011;36331;51.378;0.018;2022-09-09T09:14:45;5.03;;;3.72;;
26060;SDS011;36331;51.378;0.018;2022-09-09T09:17:16;7.77;;;3.57;;
26060;SDS011;36331;51.378;0.018;2022-09-09T09:19:48;8.55;;;3.47;;
26060;SDS011;36331;51.378;0.018;2022-09-09T09:22:18;6.15;;;3.40;;
26060;SDS011;36331;51.378;0.018;2022-09-09T09:24:55;9.23;;;4.25;;
26060;SDS011;36331;51.378;0.018;2022-09-09T09:27:30;6.95;;;3.70;;
26060;SDS011;36331;51.378;0.018;2022-09-09T09:30:04;6.55;;;4.25;;
26060;SDS011;36331;51.378;0.018;2022-09-09T09:32:55;7.10;;;4.00;;
26060;SDS011;36331;51.378;0.018;2022-09-09T09:35:25;6.63;;;3.75;;
26060;SDS011;36331;51.378;0.018;2022-09-09T09:37:55;5.40;;;4.18;;
26060;SDS011;36331;51.378;0.018;2022-09-09T09:40:51;5.63;;;4.00;;
26060;SDS011;36331;51.378;0.018;2022-09-09T09:43:24;5.00;;;3.83;;
26060;SDS011;36331;51.378;0.018;2022-09-09T09:48:45;5.78;;;4.35;;
26060;SDS011;36331;51.378;0.018;2022-09-09T09:51:26;6.82;;;4.65;;
26060;SDS011;36331;51.378;0.018;2022-09-09T09:54:03;7.55;;;4.63;;
26060;SDS011;36331;51.378;0.018;2022-09-09T09:56:39;7.00;;;4.97;;
26060;SDS011;36331;51.378;0.018;2022-09-09T09:59:20;8.23;;;6.15;;
26060;SDS011;36331;51.378;0.018;2022-09-09T10:02:13;8.98;;;5.80;;
26060;SDS011;36331;51.378;0.018;2022-09-09T10:04:47;8.98;;;6.38;;
26060;SDS011;36331;51.378;0.018;2022-09-09T10:07:17;8.15;;;5.68;;
26060;SDS011;36331;51.378;0.018;2022-09-09T10:09:48;7.60;;;5.55;;
26060;SDS011;36331;51.378;0.018;2022-09-09T10:12:23;8.55;;;5.50;;
26060;SDS011;36331;51.378;0.018;2022-09-09T10:14:56;8.10;;;5.80;;
26060;SDS011;36331;51.378;0.018;2022-09-09T10:17:33;10.15;;;6.00;;
26060;SDS011;36331;51.378;0.018;2022-09-09T10:20:12;11.55;;;6.78;;
26060;SDS011;36331;51.378;0.018;2022-09-09T10:22:47;12.50;;;7.05;;
26060;SDS011;36331;51.378;0.018;2022-09-09T10:25:25;10.43;;;6.40;;
26060;SDS011;36331;51.378;0.018;2022-09-09T10:28:04;10.23;;;6.95;;
26060;SDS011;36331;51.378;0.018;2022-09-09T10:30:41;8.40;;;7.20;;
26060;SDS011;36331;51.378;0.018;2022-09-09T10:33:16;13.18;;;7.53;;
26060;SDS011;36331;51.378;0.018;2022-09-09T10:35:50;10.18;;;6.57;;
26060;SDS011;36331;51.378;0.018;2022-09-09T10:38:22;10.43;;;6.53;;
26060;SDS011;36331;51.378;0.018;2022-09-09T10:41:00;10.68;;;6.65;;
26060;SDS011;36331;51.378;0.018;2022-09-09T10:43:41;10.57;;;6.38;;
26060;SDS011;36331;51.378;0.018;2022-09-09T10:46:15;12.40;;;6.60;;
26060;SDS011;36331;51.378;0.018;2022-09-09T10:48:56;9.32;;;5.43;;
26060;SDS011;36331;51.378;0.018;2022-09-09T10:51:33;7.43;;;5.70;;
26060;SDS011;36331;51.378;0.018;2022-09-09T10:54:13;13.73;;;5.90;;
26060;SDS011;36331;51.378;0.018;2022-09-09T10:56:44;9.02;;;5.85;;
26060;SDS011;36331;51.378;0.018;2022-09-09T10:59:19;9.23;;;5.55;;
26060;SDS011;36331;51.378;0.018;2022-09-09T11:01:51;9.02;;;5.47;;
26060;SDS011;36331;51.378;0.018;2022-09-09T11:04:24;9.75;;;5.78;;
26060;SDS011;36331;51.378;0.018;2022-09-09T11:06:55;10.82;;;5.55;;
26060;SDS011;36331;51.378;0.018;2022-09-09T11:09:25;7.25;;;5.47;;
26060;SDS011;36331;51.378;0.018;2022-09-09T11:11:57;9.30;;;5.45;;
26060;SDS011;36331;51.378;0.018;2022-09-09T11:14:28;8.48;;;6.20;;
26060;SDS011;36331;51.378;0.018;2022-09-09T11:17:04;8.63;;;5.75;;
26060;SDS011;36331;51.378;0.018;2022-09-09T11:19:37;11.15;;;5.43;;
26060;SDS011;36331;51.378;0.018;2022-09-09T11:22:07;9.00;;;6.10;;
26060;SDS011;36331;51.378;0.018;2022-09-09T11:24:43;9.20;;;5.57;;
26060;SDS011;36331;51.378;0.018;2022-09-09T11:27:15;9.35;;;5.75;;
26060;SDS011;36331;51.378;0.018;2022-09-09T11:35:52;6.10;;;4.30;;
26060;SDS011;36331;51.378;0.018;2022-09-09T11:38:25;6.03;;;3.60;;
26060;SDS011;36331;51.378;0.018;2022-09-09T11:40:55;6.10;;;3.10;;
26060;SDS011;36331;51.378;0.018;2022-09-09T11:43:27;3.72;;;2.58;;
26060;SDS011;36331;51.378;0.018;2022-09-09T11:45:58;2.83;;;2.00;;
26060;SDS011;36331;51.378;0.018;2022-09-09T11:48:32;3.63;;;2.10;;
26060;SDS011;36331;51.378;0.018;2022-09-09T11:51:07;3.72;;;2.10;;
26060;SDS011;36331;51.378;0.018;2022-09-09T11:53:49;4.13;;;2.40;;
26060;SDS011;36331;51.378;0.018;2022-09-09T11:56:26;3.47;;;2.25;;
26060;SDS011;36331;51.378;0.018;2022-09-09T11:58:58;4.90;;;2.50;;
26060;SDS011;36331;51.378;0.018;2022-09-09T12:01:37;6.25;;;2.53;;
26060;SDS011;36331;51.378;0.018;2022-09-09T12:04:16;4.20;;;2.83;;
26060;SDS011;36331;51.378;0.018;2022-09-09T12:06:50;4.65;;;2.83;;
26060;SDS011;36331;51.378;0.018;2022-09-09T12:09:22;5.30;;;2.28;;
26060;SDS011;36331;51.378;0.018;2022-09-09T12:12:04;3.53;;;2.88;;
26060;SDS011;36331;51.378;0.018;2022-09-09T12:14:35;3.22;;;2.10;;
26060;SDS011;36331;51.378;0.018;2022-09-09T12:17:17;5.03;;;2.47;;
26060;SDS011;36331;51.378;0.018;2022-09-09T12:19:48;2.85;;;1.80;;
26060;SDS011;36331;51.378;0.018;2022-09-09T12:22:22;3.63;;;2.38;;
26060;SDS011;36331;51.378;0.018;2022-09-09T12:24:55;3.30;;;2.10;;
26060;SDS011;36331;51.378;0.018;2022-09-09T12:27:28;2.33;;;1.80;;
26060;SDS011;36331;51.378;0.018;2022-09-09T12:30:02;4.50;;;2.65;;
26060;SDS011;36331;51.378;0.018;2022-09-09T12:32:33;2.85;;;1.92;;
26060;SDS011;36331;51.378;0.018;2022-09-09T12:35:09;3.75;;;2.65;;
26060;SDS011;36331;51.378;0.018;2022-09-09T12:37:45;4.05;;;1.88;;
26060;SDS011;36331;51.378;0.018;2022-09-09T12:40:19;2.88;;;1.98;;
26060;SDS011;36331;51.378;0.018;2022-09-09T12:42:49;2.88;;;2.35;;
26060;SDS011;36331;51.378;0.018;2022-09-09T12:45:19;3.65;;;2.75;;
26060;SDS011;36331;51.378;0.018;2022-09-09T12:47:53;3.90;;;2.05;;
26060;SDS011;36331;51.378;0.018;2022-09-09T12:52:55;3.13;;;2.03;;
26060;SDS011;36331;51.378;0.018;2022-09-09T12:55:27;5.18;;;2.47;;
26060;SDS011;36331;51.378;0.018;2022-09-09T12:57:58;5.28;;;2.38;;
26060;SDS011;36331;51.378;0.018;2022-09-09T13:00:27;4.30;;;2.58;;
26060;SDS011;36331;51.378;0.018;2022-09-09T13:02:57;3.63;;;2.40;;
26060;SDS011;36331;51.378;0.018;2022-09-09T13:05:28;3.90;;;1.77;;
26060;SDS011;36331;51.378;0.018;2022-09-09T13:08:04;2.88;;;2.30;;
26060;SDS011;36331;51.378;0.018;2022-09-09T13:10:35;7.68;;;2.00;;
26060;SDS011;36331;51.378;0.018;2022-09-09T13:13:20;3.10;;;1.65;;
26060;SDS011;36331;51.378;0.018;2022-09-09T13:15:51;4.95;;;2.15;;
26060;SDS011;36331;51.378;0.018;2022-09-09T13:18:21;4.25;;;2.08;;
26060;SDS011;36331;51.378;0.018;2022-09-09T13:20:52;2.95;;;2.17;;
26060;SDS011;36331;51.378;0.018;2022-09-09T13:23:27;6.50;;;2.00;;
26060;SDS011;36331;51.378;0.018;2022-09-09T13:25:57;4.93;;;2.20;;
26060;SDS011;36331;51.378;0.018;2022-09-09T13:28:28;3.53;;;1.80;;
26060;SDS011;36331;51.378;0.018;2022-09-09T13:31:01;3.85;;;1.90;;
26060;SDS011;36331;51.378;0.018;2022-09-09T13:33:31;2.75;;;1.75;;
26060;SDS011;36331;51.378;0.018;2022-09-09T13:36:02;7.03;;;2.20;;
26060;SDS011;36331;51.378;0.018;2022-09-09T13:38:35;2.67;;;1.80;;
26060;SDS011;36331;51.378;0.018;2022-09-09T13:41:05;3.58;;;1.55;;
26060;SDS011;36331;51.378;0.018;2022-09-09T13:43:36;4.45;;;1.75;;
26060;SDS011;36331;51.378;0.018;2022-09-09T13:48:54;2.95;;;2.10;;
26060;SDS011;36331;51.378;0.018;2022-09-09T13:51:34;1.92;;;1.48;;
26060;SDS011;36331;51.378;0.018;2022-09-09T13:54:06;4.03;;;1.88;;
26060;SDS011;36331;51.378;0.018;2022-09-09T13:56:48;2.88;;;1.55;;
26060;SDS011;36331;51.378;0.018;2022-09-09T13:59:34;6.13;;;2.50;;
26060;SDS011;36331;51.378;0.018;2022-09-09T14:02:37;3.13;;;1.98;;
26060;SDS011;36331;51.378;0.018;2022-09-09T14:05:07;3.45;;;2.60;;
26060;SDS011;36331;51.378;0.018;2022-09-09T14:07:36;4.20;;;2.20;;
26060;SDS011;36331;51.378;0.018;2022-09-09T14:10:08;3.88;;;2.63;;
26060;SDS011;36331;51.378;0.018;2022-09-09T14:12:38;5.95;;;2.13;;
26060;SDS011;36331;51.378;0.018;2022-09-09T14:15:10;5.80;;;2.17;;
26060;SDS011;36331;51.378;0.018;2022-09-09T14:17:40;2.88;;;1.98;;
26060;SDS011;36331;51.378;0.018;2022-09-09T14:20:09;3.88;;;2.60;;
26060;SDS011;36331;51.378;0.018;2022-09-09T14:22:42;4.10;;;1.98;;
26060;SDS011;36331;51.378;0.018;2022-09-09T14:25:13;3.10;;;1.95;;
26060;SDS011;36331;51.378;0.018;2022-09-09T14:27:42;3.92;;;1.98;;
26060;SDS011;36331;51.378;0.018;2022-09-09T14:30:13;2.55;;;1.67;;
26060;SDS011;36331;51.378;0.018;2022-09-09T14:32:42;4.72;;;1.80;;
26060;SDS011;36331;51.378;0.018;2022-09-09T14:35:12;2.33;;;1.45;;
26060;SDS011;36331;51.378;0.018;2022-09-09T14:37:41;2.58;;;1.58;;
26060;SDS011;36331;51.378;0.018;2022-09-09T14:40:10;2.70;;;1.48;;
26060;SDS011;36331;51.378;0.018;2022-09-09T14:42:42;4.35;;;1.60;;
26060;SDS011;36331;51.378;0.018;2022-09-09T14:45:12;3.30;;;1.35;;
26060;SDS011;36331;51.378;0.018;2022-09-09T14:47:41;2.05;;;1.50;;
26060;SDS011;36331;51.378;0.018;2022-09-09T14:50:10;3.78;;;1.45;;
26060;SDS011;36331;51.378;0.018;2022-09-09T14:52:41;2.75;;;1.85;;
26060;SDS011;36331;51.378;0.018;2022-09-09T14:55:10;2.78;;;1.60;;
26060;SDS011;36331;51.378;0.018;2022-09-09T14:57:39;3.15;;;1.52;;
26060;SDS011;36331;51.378;0.018;2022-09-09T15:00:10;1.55;;;1.45;;
26060;SDS011;36331;51.378;0.018;2022-09-09T15:02:41;2.85;;;1.58;;
26060;SDS011;36331;51.378;0.018;2022-09-09T15:05:10;3.28;;;1.27;;
26060;SDS011;36331;51.378;0.018;2022-09-09T15:07:40;2.38;;;1.20;;
26060;SDS011;36331;51.378;0.018;2022-09-09T15:10:09;1.92;;;1.00;;
26060;SDS011;36331;51.378;0.018;2022-09-09T15:12:42;4.50;;;1.38;;
26060;SDS011;36331;51.378;0.018;2022-09-09T15:15:12;2.22;;;1.05;;
26060;SDS011;36331;51.378;0.018;2022-09-09T15:17:42;1.83;;;1.00;;
26060;SDS011;36331;51.378;0.018;2022-09-09T15:20:11;2.08;;;0.95;;
26060;SDS011;36331;51.378;0.018;2022-09-09T15:22:40;2.50;;;0.90;;
26060;SDS011;36331;51.378;0.018;2022-09-09T15:25:09;0.90;;;0.60;;
26060;SDS011;36331;51.378;0.018;2022-09-09T15:27:39;2.88;;;0.95;;
26060;SDS011;36331;51.378;0.018;2022-09-09T15:30:09;2.17;;;1.13;;
26060;SDS011;36331;51.378;0.018;2022-09-09T15:32:39;2.65;;;0.75;;
26060;SDS011;36331;51.378;0.018;2022-09-09T15:35:09;2.90;;;0.80;;
26060;SDS011;36331;51.378;0.018;2022-09-09T15:37:38;1.20;;;0.70;;
26060;SDS011;36331;51.378;0.018;2022-09-09T15:40:07;2.47;;;0.80;;
26060;SDS011;36331;51.378;0.018;2022-09-09T15:42:37;1.70;;;1.00;;
26060;SDS011;36331;51.378;0.018;2022-09-09T15:45:06;2.22;;;0.80;;